createdAt,value
2023-11-15T00:01:55.038Z,100525.31
2023-11-15T00:04:23.141Z,100517.47
2023-11-15T00:06:51.713Z,100527.66
2023-11-15T00:09:19.905Z,100532.78
2023-11-15T00:11:52.432Z,100545.91
2023-11-15T00:14:22.091Z,100554.75
2023-11-15T00:16:52.206Z,100555.56
2023-11-15T00:19:22.255Z,100555.56
2023-11-15T00:21:51.003Z,100557.25
2023-11-15T00:24:19.780Z,100554.75
2023-11-15T00:26:48.200Z,100573.09
2023-11-15T00:29:16.324Z,100566.72
2023-11-15T00:31:45.798Z,100570.28
2023-11-15T00:34:13.885Z,100570.28
2023-11-15T00:36:46.044Z,100565.88
2023-11-15T00:39:14.154Z,100560.50
2023-11-15T00:41:42.432Z,100567.66
2023-11-15T00:44:10.546Z,100569.34
2023-11-15T00:46:39.240Z,100579.84
2023-11-15T00:49:09.391Z,100592.00
2023-11-15T00:51:37.584Z,100580.88
2023-11-15T00:54:07.836Z,100586.03
2023-11-15T00:56:35.962Z,100590.44
2023-11-15T00:59:04.421Z,100598.19
2023-11-15T01:01:32.745Z,100597.25
2023-11-15T01:04:01.059Z,100612.81
2023-11-15T01:06:30.700Z,100601.34
2023-11-15T01:08:59.079Z,100605.41
2023-11-15T01:11:28.007Z,100619.25
2023-11-15T01:13:57.180Z,100636.03
2023-11-15T01:16:25.936Z,100621.22
2023-11-15T01:18:54.867Z,100632.84
2023-11-15T01:21:23.106Z,100638.03
2023-11-15T01:23:52.805Z,100642.97
2023-11-15T01:26:21.823Z,100635.09
2023-11-15T01:28:50.281Z,100636.78
2023-11-15T01:31:18.366Z,100638.19
2023-11-15T01:33:46.558Z,100630.63
2023-11-15T01:36:15.585Z,100659.69
2023-11-15T01:38:43.795Z,100660.41
2023-11-15T01:41:13.947Z,100653.47
2023-11-15T01:43:42.049Z,100647.28
2023-11-15T01:46:10.496Z,100654.59
2023-11-15T01:48:39.274Z,100675.78
2023-11-15T01:51:08.441Z,100694.22
2023-11-15T01:53:37.442Z,100686.47
2023-11-15T01:56:06.506Z,100682.06
2023-11-15T01:58:36.303Z,100704.06
2023-11-15T02:01:06.471Z,100707.16
2023-11-15T02:03:34.824Z,100713.06
2023-11-15T02:06:03.193Z,100708.00
2023-11-15T02:08:31.370Z,100706.97
2023-11-15T02:10:59.595Z,100701.91
2023-11-15T02:13:29.327Z,100692.56
2023-11-15T02:15:58.186Z,100704.81
2023-11-15T02:18:27.215Z,100698.53
2023-11-15T02:20:55.609Z,100713.16
2023-11-15T02:23:25.073Z,100714.06
2023-11-15T02:25:54.740Z,100718.69
2023-11-15T02:28:22.862Z,100711.00
2023-11-15T02:30:51.309Z,100718.00
2023-11-15T02:33:20.113Z,100719.31
2023-11-15T02:35:49.054Z,100719.41
2023-11-15T02:38:17.602Z,100715.84
2023-11-15T02:40:46.809Z,100726.16
2023-11-15T02:43:16.370Z,100725.13
2023-11-15T02:45:44.759Z,100727.66
2023-11-15T02:48:13.195Z,100730.19
2023-11-15T02:50:41.396Z,100728.41
2023-11-15T02:53:12.664Z,100719.50
2023-11-15T02:55:40.829Z,100724.75
2023-11-15T02:58:09.170Z,100722.03
2023-11-15T03:00:39.178Z,100739.66
2023-11-15T03:03:07.785Z,100736.09
2023-11-15T03:05:36.439Z,100740.50
2023-11-15T03:08:06.890Z,100736.94
2023-11-15T03:10:35.184Z,100742.00
2023-11-15T03:13:04.767Z,100741.06
2023-11-15T03:15:33.325Z,100747.25
2023-11-15T03:18:03.067Z,100755.78
2023-11-15T03:20:32.165Z,100754.84
2023-11-15T03:23:00.274Z,100750.44
2023-11-15T03:25:28.348Z,100756.44
2023-11-15T03:27:56.814Z,100757.28
2023-11-15T03:30:25.513Z,100756.06
2023-11-15T03:32:53.673Z,100759.53
2023-11-15T03:35:23.372Z,100768.34
2023-11-15T03:37:54.302Z,100777.06
2023-11-15T03:40:25.320Z,100770.50
2023-11-15T03:42:53.520Z,100768.75
2023-11-15T03:45:21.755Z,100774.81
2023-11-15T03:47:50.015Z,100777.34
2023-11-15T03:50:19.589Z,100768.44
2023-11-15T03:52:49.038Z,100774.53
2023-11-15T03:55:18.284Z,100784.09
2023-11-15T03:57:47.634Z,100785.97
2023-11-15T04:00:15.430Z,100786.72
2023-11-15T04:02:43.578Z,100791.97
2023-11-15T04:05:12.094Z,100787.75
2023-11-15T04:07:40.451Z,100791.22
2023-11-15T04:10:11.700Z,100797.31
2023-11-15T04:12:39.868Z,100802.09
2023-11-15T04:15:10.481Z,100795.16
2023-11-15T04:17:39.147Z,100800.59
2023-11-15T04:20:09.892Z,100799.75
2023-11-15T04:22:38.010Z,100806.88
2023-11-15T04:25:06.983Z,100815.69
2023-11-15T04:27:36.474Z,100811.25
2023-11-15T04:30:04.949Z,100818.13
2023-11-15T04:32:33.077Z,100822.53
2023-11-15T04:35:01.247Z,100821.69
2023-11-15T04:37:30.299Z,100829.63
2023-11-15T04:39:58.925Z,100828.88
2023-11-15T04:42:27.023Z,100836.66
2023-11-15T04:44:56.485Z,100833.03
2023-11-15T04:47:24.622Z,100842.75
2023-11-15T04:49:52.728Z,100838.47
2023-11-15T04:52:20.864Z,100842.00
2023-11-15T04:54:48.999Z,100840.31
2023-11-15T04:57:17.278Z,100854.28
2023-11-15T04:59:45.410Z,100847.16
2023-11-15T05:02:15.085Z,100852.41
2023-11-15T05:04:43.363Z,100856.81
2023-11-15T05:07:12.170Z,100849.78
2023-11-15T05:09:40.346Z,100847.16
2023-11-15T05:12:09.049Z,100848.56
2023-11-15T05:14:38.008Z,100851.19
2023-11-15T05:17:06.572Z,100845.03
2023-11-15T05:19:38.262Z,100859.84
2023-11-15T05:22:06.647Z,100862.56
2023-11-15T05:24:34.865Z,100856.44
2023-11-15T05:27:03.385Z,100854.75
2023-11-15T05:29:32.091Z,100860.78
2023-11-15T05:32:00.386Z,100863.19
2023-11-15T05:34:52.076Z,100873.59
2023-11-15T05:37:26.376Z,100877.34
2023-11-15T05:39:54.473Z,100872.69
2023-11-15T05:42:22.605Z,100872.59
2023-11-15T05:44:50.824Z,100878.03
2023-11-15T05:47:19.038Z,100872.03
2023-11-15T05:49:48.142Z,100873.78
2023-11-15T05:52:16.619Z,100878.84
2023-11-15T05:54:48.045Z,100879.63
2023-11-15T05:57:16.334Z,100882.16
2023-11-15T05:59:44.583Z,100877.09
2023-11-15T06:02:13.523Z,100876.16
2023-11-15T06:04:43.064Z,100878.84
2023-11-15T06:07:11.392Z,100879.44
2023-11-15T06:09:39.528Z,100889.94
2023-11-15T06:12:10.607Z,100891.16
2023-11-15T06:14:38.816Z,100889.09
2023-11-15T06:17:09.125Z,100892.56
2023-11-15T06:19:37.675Z,100900.44
2023-11-15T06:22:05.966Z,100910.84
2023-11-15T06:24:34.320Z,100902.97
2023-11-15T06:27:02.433Z,100910.00
2023-11-15T06:29:31.969Z,100910.09
2023-11-15T06:32:03.816Z,100909.91
2023-11-15T06:34:32.040Z,100920.50
2023-11-15T06:37:00.786Z,100914.31
2023-11-15T06:39:28.855Z,100903.72
2023-11-15T06:41:56.979Z,100912.44
2023-11-15T06:44:27.630Z,100911.69
2023-11-15T06:46:57.240Z,100910.09
2023-11-15T06:49:25.353Z,100919.19
2023-11-15T06:51:53.419Z,100930.59
2023-11-15T06:54:21.519Z,100940.25
2023-11-15T06:56:49.884Z,100932.41
2023-11-15T06:59:18.435Z,100941.78
2023-11-15T07:01:51.151Z,100945.25
2023-11-15T07:04:23.607Z,100942.72
2023-11-15T07:06:52.048Z,100952.34
2023-11-15T07:09:20.509Z,100949.66
2023-11-15T07:11:49.641Z,100956.75
2023-11-15T07:14:18.137Z,100954.13
2023-11-15T07:16:47.697Z,100964.63
2023-11-15T07:19:15.974Z,100972.41
2023-11-15T07:21:45.454Z,100963.88
2023-11-15T07:24:14.190Z,100973.28
2023-11-15T07:26:42.380Z,100989.66
2023-11-15T07:29:11.308Z,100989.47
2023-11-15T07:31:42.086Z,100991.38
2023-11-15T07:34:11.906Z,100999.34
2023-11-15T07:36:39.934Z,101005.50
2023-11-15T07:39:14.952Z,101013.38
2023-11-15T07:41:45.741Z,101016.69
2023-11-15T07:44:17.201Z,101004.00
2023-11-15T07:46:51.253Z,101001.78
2023-11-15T07:49:21.663Z,101000.03
2023-11-15T07:51:50.658Z,101005.44
2023-11-15T07:54:20.721Z,101001.22
2023-11-15T07:56:49.186Z,101003.84
2023-11-15T07:59:18.208Z,101017.81
2023-11-15T08:01:48.340Z,101016.03
2023-11-15T08:04:17.391Z,101014.25
2023-11-15T08:06:48.304Z,101018.56
2023-11-15T08:09:26.422Z,101017.44
2023-11-15T08:11:57.882Z,101026.78
2023-11-15T08:14:27.039Z,101033.38
2023-11-15T08:16:57.910Z,101033.78
2023-11-15T08:19:26.120Z,101043.34
2023-11-15T08:21:54.282Z,101044.00
2023-11-15T08:24:23.283Z,101047.41
2023-11-15T08:26:53.767Z,101041.78
2023-11-15T08:29:24.369Z,101051.09
2023-11-15T08:31:52.777Z,101051.84
2023-11-15T08:34:23.882Z,101054.13
2023-11-15T08:36:52.978Z,101059.09
2023-11-15T08:39:23.712Z,101062.50
2023-11-15T08:41:54.938Z,101064.16
2023-11-15T08:44:24.535Z,101073.47
2023-11-15T08:46:52.825Z,101073.31
2023-11-15T08:49:21.776Z,101071.44
2023-11-15T08:51:51.917Z,101072.94
2023-11-15T08:54:20.281Z,101076.25
2023-11-15T08:56:48.426Z,101070.78
2023-11-15T08:59:16.865Z,101087.06
2023-11-15T09:01:49.058Z,101080.09
2023-11-15T09:04:17.656Z,101085.09
2023-11-15T09:06:48.262Z,101086.69
2023-11-15T09:09:17.193Z,101081.94
2023-11-15T09:11:46.146Z,101076.97
2023-11-15T09:14:15.945Z,101090.59
2023-11-15T09:16:45.970Z,101096.16
2023-11-15T09:19:18.664Z,101093.81
2023-11-15T09:21:50.160Z,101097.75
2023-11-15T09:24:23.811Z,101096.44
2023-11-15T09:26:53.118Z,101106.59
2023-11-15T09:29:21.621Z,101103.78
2023-11-15T09:31:51.240Z,101116.94
2023-11-15T09:34:21.779Z,101108.28
2023-11-15T09:36:53.312Z,101106.50
2023-11-15T09:39:21.847Z,101110.91
2023-11-15T09:41:55.314Z,101112.03
2023-11-15T09:44:24.951Z,101125.00
2023-11-15T09:46:59.123Z,101114.28
2023-11-15T09:49:30.922Z,101116.63
2023-11-15T09:52:00.424Z,101119.00
2023-11-15T09:54:30.379Z,101118.34
2023-11-15T09:57:00.876Z,101119.56
2023-11-15T09:59:31.402Z,101134.56
2023-11-15T10:01:59.782Z,101138.91
2023-11-15T10:04:31.175Z,101134.75
2023-11-15T10:07:05.875Z,101135.69
2023-11-15T10:09:39.985Z,101141.72
2023-11-15T10:12:09.387Z,101145.09
2023-11-15T10:14:52.382Z,101140.41
2023-11-15T10:17:40.779Z,101134.78
2023-11-15T10:20:21.366Z,101134.97
2023-11-15T10:22:49.810Z,101136.25
2023-11-15T10:25:19.335Z,101142.00
2023-11-15T10:27:48.120Z,101147.53
2023-11-15T10:30:21.795Z,101142.91
2023-11-15T10:32:52.336Z,101137.03
2023-11-15T10:35:29.657Z,101140.22
2023-11-15T10:37:58.634Z,101140.03
2023-11-15T10:40:30.117Z,101143.53
2023-11-15T10:43:00.070Z,101149.16
2023-11-15T10:45:29.630Z,101141.50
2023-11-15T10:48:00.035Z,101144.47
2023-11-15T10:50:32.339Z,101145.47
2023-11-15T10:53:01.530Z,101140.31
2023-11-15T10:55:31.160Z,101152.78
2023-11-15T10:58:04.181Z,101141.84
2023-11-15T11:00:32.530Z,101145.66
2023-11-15T11:03:00.788Z,101143.44
2023-11-15T11:05:43.133Z,101143.59
2023-11-15T11:08:21.842Z,101144.09
2023-11-15T11:10:57.816Z,101147.72
2023-11-15T11:13:25.912Z,101140.75
2023-11-15T11:15:54.072Z,101140.13
2023-11-15T11:18:23.428Z,101139.28
2023-11-15T11:21:01.191Z,101151.72
2023-11-15T11:23:35.327Z,101150.34
2023-11-15T11:26:33.781Z,101158.59
2023-11-15T11:29:04.169Z,101156.16
2023-11-15T11:31:32.546Z,101151.63
2023-11-15T11:34:11.847Z,101145.91
2023-11-15T11:36:51.026Z,101151.06
2023-11-15T11:39:23.945Z,101153.00
2023-11-15T11:41:52.421Z,101152.88
2023-11-15T11:44:20.549Z,101151.63
2023-11-15T11:47:03.997Z,101143.72
2023-11-15T11:49:47.933Z,101138.22
2023-11-15T11:52:21.123Z,101140.00
2023-11-15T11:54:53.092Z,101134.22
2023-11-15T11:57:25.513Z,101148.13
2023-11-15T12:00:05.961Z,101149.84
2023-11-15T12:02:35.386Z,101143.19
2023-11-15T12:05:07.768Z,101142.75
2023-11-15T12:07:43.799Z,101147.09
2023-11-15T12:10:13.713Z,101150.78
2023-11-15T12:12:42.544Z,101150.56
2023-11-15T12:15:14.462Z,101155.28
2023-11-15T12:17:45.468Z,101153.81
2023-11-15T12:20:14.909Z,101139.66
2023-11-15T12:22:46.843Z,101138.72
2023-11-15T12:25:16.864Z,101145.50
2023-11-15T12:27:45.718Z,101145.56
2023-11-15T12:30:14.188Z,101153.31
2023-11-15T12:32:43.416Z,101161.72
2023-11-15T12:35:12.044Z,101158.81
2023-11-15T12:37:40.574Z,101156.50
2023-11-15T12:40:20.387Z,101158.19
2023-11-15T12:42:49.279Z,101163.47
2023-11-15T12:45:29.849Z,101164.69
2023-11-15T12:48:09.058Z,101161.59
2023-11-15T12:50:42.623Z,101161.97
2023-11-15T12:53:15.978Z,101161.88
2023-11-15T12:55:51.756Z,101171.00
2023-11-15T12:58:20.868Z,101168.69
2023-11-15T13:01:02.476Z,101168.13
2023-11-15T13:03:34.311Z,101171.13
2023-11-15T13:06:12.842Z,101172.91
2023-11-15T13:08:42.395Z,101186.94
2023-11-15T13:11:13.446Z,101173.50
2023-11-15T13:13:41.740Z,101181.38
2023-11-15T13:16:10.589Z,101176.88
2023-11-15T13:18:39.397Z,101174.50
2023-11-15T13:21:08.647Z,101181.56
2023-11-15T13:23:40.617Z,101173.84
2023-11-15T13:26:11.564Z,101181.81
2023-11-15T13:28:43.411Z,101185.50
2023-11-15T13:31:15.381Z,101173.72
2023-11-15T13:33:48.709Z,101177.03
2023-11-15T13:36:21.061Z,101169.31
2023-11-15T13:38:50.108Z,101170.84
2023-11-15T13:41:23.696Z,101167.25
2023-11-15T13:43:54.453Z,101164.81
2023-11-15T13:46:24.519Z,101157.94
2023-11-15T13:48:54.338Z,101169.31
2023-11-15T13:51:23.354Z,101165.00
2023-11-15T13:53:52.018Z,101159.16
2023-11-15T13:56:21.114Z,101168.28
2023-11-15T13:58:53.319Z,101177.19
2023-11-15T14:01:25.397Z,101183.19
2023-11-15T14:03:53.693Z,101177.09
2023-11-15T14:06:21.812Z,101173.78
2023-11-15T14:08:58.242Z,101182.75
2023-11-15T14:11:30.280Z,101185.28
2023-11-15T14:14:00.117Z,101190.63
2023-11-15T14:16:28.536Z,101197.09
2023-11-15T14:19:03.444Z,101197.38
2023-11-15T14:21:32.069Z,101191.34
2023-11-15T14:24:00.182Z,101197.72
2023-11-15T14:26:28.865Z,101199.44
2023-11-15T14:28:56.940Z,101206.56
2023-11-15T14:31:26.384Z,101211.88
2023-11-15T14:33:54.592Z,101209.25
2023-11-15T14:36:26.179Z,101216.03
2023-11-15T14:38:55.942Z,101221.47
2023-11-15T14:41:24.191Z,101213.34
2023-11-15T14:43:52.439Z,101223.84
2023-11-15T14:46:24.566Z,101225.53
2023-11-15T14:48:54.760Z,101225.44
2023-11-15T14:51:23.010Z,101226.47
2023-11-15T14:53:56.557Z,101230.03
2023-11-15T14:56:25.249Z,101227.66
2023-11-15T14:58:55.452Z,101226.22
2023-11-15T15:01:25.770Z,101227.34
2023-11-15T15:03:55.413Z,101241.34
2023-11-15T15:06:23.727Z,101232.50
2023-11-15T15:08:51.803Z,101243.88
2023-11-15T15:11:19.895Z,101246.09
2023-11-15T15:13:47.978Z,101241.84
2023-11-15T15:16:17.910Z,101249.06
2023-11-15T15:18:46.227Z,101252.53
2023-11-15T15:21:18.342Z,101248.13
2023-11-15T15:23:46.432Z,101257.84
2023-11-15T15:26:15.548Z,101259.75
2023-11-15T15:28:43.649Z,101257.34
2023-11-15T15:31:13.993Z,101259.50
2023-11-15T15:33:43.690Z,101268.63
2023-11-15T15:36:14.208Z,101262.84
2023-11-15T15:38:43.763Z,101261.19
2023-11-15T15:41:11.927Z,101268.19
2023-11-15T15:43:40.063Z,101275.31
2023-11-15T15:46:08.369Z,101274.78
2023-11-15T15:48:36.564Z,101273.09
2023-11-15T15:51:05.000Z,101279.44
2023-11-15T15:53:33.174Z,101277.00
2023-11-15T15:56:02.780Z,101276.38
2023-11-15T15:58:30.846Z,101283.81
2023-11-15T16:00:59.156Z,101280.81
2023-11-15T16:03:27.905Z,101280.13
2023-11-15T16:05:57.104Z,101282.38
2023-11-15T16:08:27.868Z,101280.41
2023-11-15T16:10:57.305Z,101288.56
2023-11-15T16:13:26.731Z,101290.59
2023-11-15T16:15:54.881Z,101294.22
2023-11-15T16:18:23.674Z,101290.72
2023-11-15T16:20:55.077Z,101284.09
2023-11-15T16:23:23.237Z,101299.22
2023-11-15T16:25:52.710Z,101294.06
2023-11-15T16:28:22.127Z,101302.00
2023-11-15T16:30:51.610Z,101295.50
2023-11-15T16:33:19.826Z,101291.34
2023-11-15T16:35:50.025Z,101289.84
2023-11-15T16:38:18.162Z,101291.69
2023-11-15T16:40:46.330Z,101300.41
2023-11-15T16:43:15.329Z,101290.06
2023-11-15T16:45:43.791Z,101295.41
2023-11-15T16:48:13.368Z,101293.97
2023-11-15T16:50:43.884Z,101293.97
2023-11-15T16:53:13.094Z,101298.53
2023-11-15T16:55:41.719Z,101296.97
2023-11-15T16:58:12.176Z,101298.19
2023-11-15T17:00:41.025Z,101300.03
2023-11-15T17:03:10.202Z,101301.78
2023-11-15T17:05:40.476Z,101300.94
2023-11-15T17:08:08.695Z,101307.09
2023-11-15T17:10:37.275Z,101303.72
2023-11-15T17:13:06.551Z,101302.09
2023-11-15T17:15:34.706Z,101303.09
2023-11-15T17:18:03.333Z,101303.25
2023-11-15T17:20:33.707Z,101302.44
2023-11-15T17:23:08.846Z,101300.97
2023-11-15T17:25:37.489Z,101295.88
2023-11-15T17:28:06.690Z,101302.09
2023-11-15T17:30:34.765Z,101304.00
2023-11-15T17:33:04.102Z,101309.25
2023-11-15T17:35:32.217Z,101310.19
2023-11-15T17:38:00.492Z,101307.63
2023-11-15T17:40:31.965Z,101311.03
2023-11-15T17:43:01.267Z,101311.03
2023-11-15T17:45:32.756Z,101312.84
2023-11-15T17:48:01.052Z,101303.44
2023-11-15T17:50:31.674Z,101315.78
2023-11-15T17:53:00.129Z,101314.06
2023-11-15T17:55:29.796Z,101310.69
2023-11-15T17:57:57.946Z,101317.66
2023-11-15T18:00:26.122Z,101317.59
2023-11-15T18:02:54.380Z,101322.78
2023-11-15T18:05:23.481Z,101320.94
2023-11-15T18:07:55.809Z,101322.56
2023-11-15T18:10:29.528Z,101316.53
2023-11-15T18:12:59.635Z,101321.78
2023-11-15T18:15:28.045Z,101315.53
2023-11-15T18:17:56.328Z,101316.25
2023-11-15T18:20:25.026Z,101311.78
2023-11-15T18:22:55.408Z,101315.19
2023-11-15T18:25:23.673Z,101317.66
2023-11-15T18:27:51.758Z,101319.22
2023-11-15T18:30:21.215Z,101320.09
2023-11-15T18:32:49.553Z,101313.00
2023-11-15T18:35:18.362Z,101326.03
2023-11-15T18:37:46.563Z,101313.88
2023-11-15T18:40:18.240Z,101319.03
2023-11-15T18:42:46.504Z,101304.94
2023-11-15T18:45:15.073Z,101306.78
2023-11-15T18:47:45.671Z,101309.31
2023-11-15T18:50:15.776Z,101308.47
2023-11-15T18:52:44.821Z,101311.09
2023-11-15T18:55:18.840Z,101310.03
2023-11-15T18:57:47.024Z,101316.34
2023-11-15T19:00:19.412Z,101330.13
2023-11-15T19:02:49.653Z,101321.50
2023-11-15T19:05:19.036Z,101321.56
2023-11-15T19:07:47.676Z,101317.09
2023-11-15T19:10:19.022Z,101317.25
2023-11-15T19:12:49.857Z,101319.09
2023-11-15T19:15:22.120Z,101311.38
2023-11-15T19:17:51.872Z,101308.81
2023-11-15T19:20:21.960Z,101315.84
2023-11-15T19:22:54.481Z,101308.69
2023-11-15T19:25:24.149Z,101312.09
2023-11-15T19:27:52.246Z,101319.03
2023-11-15T19:30:24.456Z,101320.66
2023-11-15T19:32:56.904Z,101324.84
2023-11-15T19:35:25.480Z,101325.75
2023-11-15T19:37:53.555Z,101331.75
2023-11-15T19:40:21.628Z,101322.81
2023-11-15T19:42:50.487Z,101323.78
2023-11-15T19:45:19.103Z,101322.91
2023-11-15T19:47:48.007Z,101319.53
2023-11-15T19:50:17.496Z,101326.44
2023-11-15T19:52:46.453Z,101322.22
2023-11-15T19:55:16.227Z,101319.53
2023-11-15T19:57:44.502Z,101320.34
2023-11-15T20:00:13.859Z,101329.91
2023-11-15T20:02:46.825Z,101327.31
2023-11-15T20:05:18.066Z,101323.78
2023-11-15T20:07:46.444Z,101330.69
2023-11-15T20:10:14.693Z,101328.84
2023-11-15T20:12:44.349Z,101335.66
2023-11-15T20:15:14.392Z,101326.94
2023-11-15T20:17:46.608Z,101326.88
2023-11-15T20:20:16.097Z,101322.63
2023-11-15T20:22:51.801Z,101319.28
2023-11-15T20:25:22.004Z,101313.13
2023-11-15T20:27:50.252Z,101316.50
2023-11-15T20:30:19.426Z,101320.75
2023-11-15T20:32:48.130Z,101320.84
2023-11-15T20:35:17.586Z,101310.28
2023-11-15T20:37:47.060Z,101316.47
2023-11-15T20:40:16.986Z,101312.81
2023-11-15T20:42:48.791Z,101312.91
2023-11-15T20:45:19.781Z,101306.75
2023-11-15T20:47:48.100Z,101315.44
2023-11-15T20:50:16.528Z,101305.91
2023-11-15T20:52:47.386Z,101305.19
2023-11-15T20:55:20.642Z,101298.19
2023-11-15T20:57:50.380Z,101301.75
2023-11-15T21:00:26.931Z,101312.25
2023-11-15T21:02:57.068Z,101301.03
2023-11-15T21:05:26.331Z,101300.94
2023-11-15T21:07:56.607Z,101294.09
2023-11-15T21:10:25.091Z,101293.41
2023-11-15T21:12:53.562Z,101305.56
2023-11-15T21:15:22.178Z,101304.63
2023-11-15T21:17:50.238Z,101309.25
2023-11-15T21:20:18.472Z,101315.28
2023-11-15T21:22:49.095Z,101316.09
2023-11-15T21:25:19.016Z,101312.00
2023-11-15T21:27:49.606Z,101312.00
2023-11-15T21:30:19.334Z,101306.94
2023-11-15T21:32:48.163Z,101299.22
2023-11-15T21:35:16.465Z,101305.06
2023-11-15T21:37:46.057Z,101306.94
2023-11-15T21:40:16.680Z,101307.91
2023-11-15T21:42:48.564Z,101310.72
2023-11-15T21:45:18.898Z,101305.38
2023-11-15T21:47:47.243Z,101302.69
2023-11-15T21:50:16.857Z,101298.28
2023-11-15T21:52:45.605Z,101304.47
2023-11-15T21:55:13.831Z,101299.97
2023-11-15T21:57:42.107Z,101296.38
2023-11-15T22:00:15.902Z,101304.22
2023-11-15T22:02:44.340Z,101299.81
2023-11-15T22:05:12.701Z,101289.34
2023-11-15T22:07:41.010Z,101297.84
2023-11-15T22:10:10.617Z,101295.88
2023-11-15T22:12:39.035Z,101290.63
2023-11-15T22:15:10.087Z,101295.94
2023-11-15T22:17:41.126Z,101291.63
2023-11-15T22:20:11.943Z,101296.84
2023-11-15T22:22:40.401Z,101282.13
2023-11-15T22:25:08.981Z,101283.84
2023-11-15T22:27:39.918Z,101292.69
2023-11-15T22:30:11.268Z,101296.13
2023-11-15T22:32:41.479Z,101295.38
2023-11-15T22:35:11.060Z,101285.66
2023-11-15T22:37:39.359Z,101285.66
2023-11-15T22:40:08.419Z,101285.75
2023-11-15T22:42:36.540Z,101285.66
2023-11-15T22:45:05.636Z,101289.91
2023-11-15T22:47:34.819Z,101290.78
2023-11-15T22:50:05.788Z,101293.41
2023-11-15T22:52:34.646Z,101300.25
2023-11-15T22:55:02.764Z,101302.94
2023-11-15T22:57:30.870Z,101303.81
2023-11-15T22:59:59.281Z,101303.81
2023-11-15T23:02:27.612Z,101294.31
2023-11-15T23:04:56.719Z,101304.88
2023-11-15T23:07:26.534Z,101304.94
2023-11-15T23:09:54.682Z,101302.25
2023-11-15T23:12:24.133Z,101296.94
2023-11-15T23:14:52.277Z,101295.22
2023-11-15T23:17:22.723Z,101300.38
2023-11-15T23:19:51.895Z,101294.38
2023-11-15T23:22:20.027Z,101299.56
2023-11-15T23:24:49.453Z,101302.94
2023-11-15T23:27:18.159Z,101300.53
2023-11-15T23:29:46.314Z,101303.09
2023-11-15T23:32:14.548Z,101300.63
2023-11-15T23:34:43.483Z,101295.31
2023-11-15T23:37:11.624Z,101301.38
2023-11-15T23:39:39.834Z,101293.75
2023-11-15T23:42:10.932Z,101298.91
2023-11-15T23:44:42.726Z,101294.59
2023-11-15T23:47:10.924Z,101300.78
2023-11-15T23:49:39.074Z,101304.94
2023-11-15T23:52:07.765Z,101295.31
2023-11-15T23:54:38.512Z,101294.31
2023-11-15T23:57:09.481Z,101300.38
2023-11-15T23:59:40.634Z,101300.47
